createdAt,value
2018-06-25T00:02:14.752Z,93.70
2018-06-25T00:04:43.210Z,93.90
2018-06-25T00:07:11.678Z,94.00
2018-06-25T00:09:40.104Z,94.10
2018-06-25T00:12:08.633Z,94.20
2018-06-25T00:14:37.097Z,94.30
2018-06-25T00:17:05.678Z,94.00
2018-06-25T00:19:34.078Z,94.10
2018-06-25T00:22:02.540Z,94.20
2018-06-25T00:24:30.957Z,94.50
2018-06-25T00:26:59.378Z,94.50
2018-06-25T00:29:27.970Z,94.60
2018-06-25T00:31:56.398Z,94.50
2018-06-25T00:34:24.922Z,94.60
2018-06-25T00:36:53.483Z,94.50
2018-06-25T00:39:22.043Z,94.50
2018-06-25T00:41:50.626Z,94.50
2018-06-25T00:44:19.218Z,94.20
2018-06-25T00:46:47.859Z,94.50
2018-06-25T00:49:16.521Z,94.80
2018-06-25T00:51:45.062Z,95.40
2018-06-25T00:54:13.615Z,95.60
2018-06-25T00:56:42.170Z,95.50
2018-06-25T01:00:13.578Z,95.60
2018-06-25T01:04:11.460Z,95.70
2018-06-25T01:06:40.039Z,95.90
2018-06-25T01:09:10.793Z,95.80
2018-06-25T01:11:39.247Z,95.70
2018-06-25T01:14:07.759Z,95.90
2018-06-25T01:16:36.322Z,96.20
2018-06-25T01:19:04.914Z,96.80
2018-06-25T01:21:33.518Z,97.20
2018-06-25T01:24:02.355Z,97.80
2018-06-25T01:26:30.829Z,98.10
2018-06-25T01:28:59.277Z,98.50
2018-06-25T01:31:27.706Z,98.60
2018-06-25T01:33:56.539Z,98.50
2018-06-25T01:36:25.062Z,98.70
2018-06-25T01:38:53.574Z,98.80
2018-06-25T01:41:22.198Z,98.50
2018-06-25T01:43:50.854Z,98.10
2018-06-25T01:46:19.602Z,97.80
2018-06-25T01:48:48.158Z,97.50
2018-06-25T01:51:16.643Z,97.20
2018-06-25T01:53:45.215Z,97.10
2018-06-25T01:56:13.752Z,97.10
2018-06-25T01:58:42.323Z,97.00
2018-06-25T02:01:10.898Z,97.00
2018-06-25T02:03:39.366Z,96.90
2018-06-25T02:06:07.919Z,96.90
2018-06-25T02:08:36.482Z,96.80
2018-06-25T02:11:04.999Z,96.70
2018-06-25T02:13:33.678Z,96.70
2018-06-25T02:16:02.226Z,96.90
2018-06-25T02:18:30.665Z,96.70
2018-06-25T02:20:59.163Z,96.30
2018-06-25T02:23:27.606Z,96.40
2018-06-25T02:25:56.282Z,96.20
2018-06-25T02:28:24.774Z,96.90
2018-06-25T02:30:53.302Z,97.60
2018-06-25T02:33:21.718Z,98.40
2018-06-25T02:35:50.162Z,99.40
2018-06-25T02:38:18.578Z,99.90
2018-06-25T02:40:47.274Z,99.90
2018-06-25T02:43:15.779Z,99.90
2018-06-25T02:45:44.375Z,99.90
2018-06-25T02:48:12.963Z,99.90
2018-06-25T02:50:41.604Z,99.90
2018-06-25T02:53:10.046Z,99.90
2018-06-25T02:55:38.602Z,99.90
2018-06-25T02:58:07.110Z,99.90
2018-06-25T03:00:35.550Z,99.90
2018-06-25T03:03:04.137Z,99.90
2018-06-25T03:05:32.831Z,99.90
2018-06-25T03:08:01.386Z,99.90
2018-06-25T03:10:29.939Z,99.90
2018-06-25T03:12:58.442Z,99.90
2018-06-25T03:17:55.157Z,99.90
2018-06-25T03:20:23.725Z,99.90
2018-06-25T03:22:52.180Z,99.90
2018-06-25T03:25:20.730Z,99.90
2018-06-25T03:27:49.274Z,99.90
2018-06-25T03:30:17.819Z,99.90
2018-06-25T03:32:46.269Z,99.90
2018-06-25T03:35:14.848Z,99.90
2018-06-25T03:37:43.406Z,99.90
2018-06-25T03:40:12.122Z,99.90
2018-06-25T03:42:40.850Z,99.90
2018-06-25T03:47:37.531Z,99.90
2018-06-25T03:50:06.128Z,99.90
2018-06-25T03:52:34.562Z,99.90
2018-06-25T03:55:03.086Z,99.90
2018-06-25T03:57:31.546Z,99.90
2018-06-25T04:00:00.253Z,99.90
2018-06-25T04:02:28.753Z,99.90
2018-06-25T04:04:57.266Z,99.90
2018-06-25T04:07:25.742Z,99.90
2018-06-25T04:09:54.202Z,99.90
2018-06-25T04:12:22.761Z,99.90
2018-06-25T04:14:51.229Z,99.90
2018-06-25T04:17:19.770Z,99.90
2018-06-25T04:19:48.870Z,99.90
2018-06-25T04:22:17.442Z,99.90
2018-06-25T04:24:45.920Z,99.90
2018-06-25T04:27:14.438Z,99.90
2018-06-25T04:29:42.953Z,99.90
2018-06-25T04:32:11.574Z,99.90
2018-06-25T04:34:40.092Z,99.90
2018-06-25T04:37:08.570Z,99.90
2018-06-25T04:39:37.131Z,99.90
2018-06-25T04:42:05.739Z,99.90
2018-06-25T04:44:34.286Z,99.90
2018-06-25T04:47:02.867Z,99.90
2018-06-25T04:49:31.310Z,99.90
2018-06-25T04:51:59.738Z,99.90
2018-06-25T04:54:28.182Z,99.90
2018-06-25T04:56:56.762Z,99.90
2018-06-25T04:59:25.446Z,99.90
2018-06-25T05:01:53.995Z,99.90
2018-06-25T05:04:22.534Z,99.90
2018-06-25T05:06:51.079Z,99.90
2018-06-25T05:09:19.618Z,99.90
2018-06-25T05:11:48.182Z,99.90
2018-06-25T05:14:16.731Z,99.90
2018-06-25T05:16:45.706Z,99.90
2018-06-25T05:19:14.309Z,99.90
2018-06-25T05:21:42.865Z,99.90
2018-06-25T05:25:40.830Z,99.90
2018-06-25T05:28:09.254Z,99.90
2018-06-25T05:30:37.801Z,99.90
2018-06-25T05:33:06.978Z,99.90
2018-06-25T05:38:03.596Z,99.90
2018-06-25T05:40:32.318Z,99.90
2018-06-25T05:43:00.981Z,99.90
2018-06-25T05:45:29.514Z,99.90
2018-06-25T05:50:26.294Z,99.90
2018-06-25T05:52:54.941Z,99.90
2018-06-25T05:55:23.409Z,99.90
2018-06-25T05:57:51.837Z,99.90
2018-06-25T06:00:20.310Z,99.70
2018-06-25T06:02:49.412Z,99.50
2018-06-25T06:05:17.842Z,99.30
2018-06-25T06:07:46.312Z,98.70
2018-06-25T06:10:14.934Z,98.00
2018-06-25T06:12:43.646Z,97.60
2018-06-25T06:15:12.054Z,95.80
2018-06-25T06:17:40.562Z,94.50
2018-06-25T06:20:08.998Z,92.60
2018-06-25T06:22:37.641Z,89.60
2018-06-25T06:25:06.263Z,89.30
2018-06-25T06:27:34.744Z,88.80
2018-06-25T06:30:03.418Z,87.00
2018-06-25T06:32:31.919Z,86.00
2018-06-25T06:35:00.398Z,83.50
2018-06-25T06:37:28.974Z,78.50
2018-06-25T06:39:57.563Z,74.70
2018-06-25T06:42:26.023Z,73.60
2018-06-25T06:44:54.481Z,70.00
2018-06-25T06:47:23.036Z,69.10
2018-06-25T06:49:51.487Z,67.40
2018-06-25T06:52:20.116Z,65.50
2018-06-25T06:54:48.577Z,64.60
2018-06-25T06:57:17.134Z,61.40
2018-06-25T06:59:45.586Z,62.00
2018-06-25T07:02:14.218Z,62.30
2018-06-25T07:04:42.775Z,63.60
2018-06-25T07:07:11.437Z,65.30
2018-06-25T07:09:39.913Z,67.30
2018-06-25T07:12:08.583Z,66.00
2018-06-25T07:14:37.018Z,67.70
2018-06-25T07:17:05.540Z,67.20
2018-06-25T07:19:34.203Z,69.30
2018-06-25T07:22:02.637Z,72.20
2018-06-25T07:24:31.254Z,74.10
2018-06-25T07:26:59.829Z,74.90
2018-06-25T07:29:28.381Z,75.80
2018-06-25T07:31:57.134Z,76.70
2018-06-25T07:34:25.591Z,77.20
2018-06-25T07:36:54.055Z,78.30
2018-06-25T07:39:22.557Z,78.80
2018-06-25T07:41:51.118Z,80.00
2018-06-25T07:44:19.583Z,80.10
2018-06-25T07:46:48.273Z,80.20
2018-06-25T07:49:16.724Z,80.30
2018-06-25T07:51:45.196Z,79.80
2018-06-25T07:54:13.680Z,79.50
2018-06-25T07:56:42.114Z,79.30
2018-06-25T07:59:10.643Z,79.90
2018-06-25T08:01:39.249Z,79.70
2018-06-25T08:04:07.794Z,79.10
2018-06-25T08:06:36.449Z,77.80
2018-06-25T08:09:08.386Z,77.60
2018-06-25T08:11:36.938Z,77.10
2018-06-25T08:14:05.507Z,76.70
2018-06-25T08:16:34.720Z,77.50
2018-06-25T08:19:03.235Z,77.10
2018-06-25T08:23:59.885Z,75.40
2018-06-25T08:26:28.381Z,74.50
2018-06-25T08:28:57.059Z,74.10
2018-06-25T08:33:53.928Z,71.50
2018-06-25T08:36:22.546Z,69.80
2018-06-25T08:45:35.747Z,69.30
2018-06-25T08:48:04.261Z,65.10
2018-06-25T08:50:32.727Z,65.00
2018-06-25T08:53:01.207Z,64.80
2018-06-25T08:55:29.766Z,63.40
2018-06-25T08:57:58.233Z,64.00
2018-06-25T09:07:11.090Z,61.70
2018-06-25T09:09:39.558Z,60.80
2018-06-25T09:12:08.018Z,61.20
2018-06-25T09:14:36.514Z,60.30
2018-06-25T09:17:05.133Z,60.50
2018-06-25T09:19:33.570Z,60.80
2018-06-25T09:22:02.167Z,60.10
2018-06-25T09:24:30.594Z,60.60
2018-06-25T09:26:59.175Z,60.20
2018-06-25T09:29:27.769Z,59.60
2018-06-25T09:31:56.202Z,59.50
2018-06-25T09:34:29.933Z,59.00
2018-06-25T09:36:58.366Z,58.90
2018-06-25T09:39:27.311Z,58.70
2018-06-25T09:41:55.823Z,60.10
2018-06-25T09:44:24.262Z,57.80
2018-06-25T09:46:52.795Z,57.10
2018-06-25T09:51:49.406Z,58.80
2018-06-25T09:54:17.835Z,59.30
2018-06-25T09:56:46.350Z,58.20
2018-06-25T09:59:14.803Z,58.10
2018-06-25T10:01:43.442Z,58.00
2018-06-25T10:04:11.935Z,57.70
2018-06-25T10:06:40.419Z,57.70
2018-06-25T10:09:11.038Z,57.80
2018-06-25T10:11:39.742Z,57.80
2018-06-25T10:14:08.372Z,57.40
2018-06-25T10:16:36.910Z,57.50
2018-06-25T10:19:05.528Z,57.70
2018-06-25T10:21:34.086Z,57.30
2018-06-25T10:24:02.522Z,57.30
2018-06-25T10:26:31.006Z,57.10
2018-06-25T10:28:59.545Z,56.90
2018-06-25T10:31:28.001Z,56.50
2018-06-25T10:33:56.470Z,55.30
2018-06-25T10:36:24.893Z,55.00
2018-06-25T10:38:53.459Z,55.00
2018-06-25T10:41:21.942Z,53.90
2018-06-25T10:43:51.499Z,53.40
2018-06-25T10:46:19.913Z,53.90
2018-06-25T10:48:48.561Z,53.70
2018-06-25T10:51:17.046Z,52.60
2018-06-25T10:53:45.534Z,53.40
2018-06-25T10:56:14.123Z,53.20
2018-06-25T10:58:42.579Z,53.50
2018-06-25T11:01:11.031Z,52.20
2018-06-25T11:03:39.598Z,52.40
2018-06-25T11:06:09.401Z,51.80
2018-06-25T11:08:38.273Z,52.20
2018-06-25T11:11:06.834Z,52.60
2018-06-25T11:13:35.424Z,52.30
2018-06-25T11:16:04.168Z,52.50
2018-06-25T11:18:32.751Z,52.50
2018-06-25T11:21:01.194Z,52.30
2018-06-25T11:23:29.626Z,51.40
2018-06-25T11:25:58.114Z,50.80
2018-06-25T11:28:26.522Z,51.40
2018-06-25T11:30:54.973Z,50.90
2018-06-25T11:33:23.771Z,48.10
2018-06-25T11:35:52.226Z,48.30
2018-06-25T11:38:20.755Z,47.90
2018-06-25T11:40:49.268Z,48.00
2018-06-25T11:43:17.696Z,47.30
2018-06-25T11:45:46.283Z,47.10
2018-06-25T11:48:14.972Z,47.90
2018-06-25T11:50:43.511Z,47.00
2018-06-25T11:53:11.938Z,46.60
2018-06-25T11:55:40.402Z,45.60
2018-06-25T11:58:08.836Z,45.30
2018-06-25T12:00:37.274Z,44.70
2018-06-25T12:05:34.106Z,44.90
2018-06-25T12:08:02.579Z,44.40
2018-06-25T12:10:31.122Z,44.20
2018-06-25T12:12:59.528Z,43.60
2018-06-25T12:15:27.986Z,43.90
2018-06-25T12:17:56.487Z,43.90
2018-06-25T12:20:25.034Z,44.00
2018-06-25T12:22:54.218Z,42.80
2018-06-25T12:25:22.670Z,43.80
2018-06-25T12:27:51.296Z,43.00
2018-06-25T12:30:19.731Z,42.00
2018-06-25T12:32:48.222Z,42.10
2018-06-25T12:35:16.695Z,41.00
2018-06-25T12:37:45.158Z,40.90
2018-06-25T12:40:14.001Z,39.90
2018-06-25T12:42:42.855Z,40.40
2018-06-25T12:45:11.311Z,40.00
2018-06-25T12:47:39.911Z,38.80
2018-06-25T12:50:08.414Z,40.00
2018-06-25T12:52:36.866Z,40.40
2018-06-25T12:55:05.714Z,41.10
2018-06-25T12:57:34.989Z,41.90
2018-06-25T13:00:03.453Z,42.30
2018-06-25T13:02:31.946Z,42.00
2018-06-25T13:05:00.574Z,42.30
2018-06-25T13:07:29.046Z,43.40
2018-06-25T13:09:57.695Z,42.80
2018-06-25T13:12:26.174Z,43.00
2018-06-25T13:14:54.683Z,41.80
2018-06-25T13:17:23.233Z,41.80
2018-06-25T13:19:51.702Z,41.80
2018-06-25T13:22:20.163Z,41.60
2018-06-25T13:24:48.794Z,40.40
2018-06-25T13:27:17.401Z,41.80
2018-06-25T13:29:45.971Z,41.40
2018-06-25T13:32:14.446Z,41.20
2018-06-25T13:34:42.889Z,40.90
2018-06-25T13:37:11.507Z,41.80
2018-06-25T13:42:08.130Z,42.20
2018-06-25T13:44:36.841Z,40.90
2018-06-25T13:47:05.637Z,42.50
2018-06-25T13:49:34.116Z,45.40
2018-06-25T13:52:02.546Z,45.20
2018-06-25T13:54:31.013Z,44.10
2018-06-25T13:56:59.558Z,41.90
2018-06-25T13:59:28.034Z,40.80
2018-06-25T14:01:56.542Z,40.90
2018-06-25T14:04:25.098Z,42.30
2018-06-25T14:06:53.521Z,42.60
2018-06-25T14:09:22.045Z,42.50
2018-06-25T14:11:51.267Z,43.40
2018-06-25T14:14:19.947Z,44.10
2018-06-25T14:16:48.662Z,42.60
2018-06-25T14:19:16.982Z,43.20
2018-06-25T14:21:45.517Z,44.00
2018-06-25T14:24:19.348Z,42.80
2018-06-25T14:26:47.831Z,41.40
2018-06-25T14:29:21.563Z,41.90
2018-06-25T14:32:05.210Z,42.40
2018-06-25T14:34:33.825Z,42.80
2018-06-25T14:37:02.302Z,43.50
2018-06-25T14:39:31.048Z,44.40
2018-06-25T14:42:00.625Z,44.20
2018-06-25T14:44:29.130Z,43.40
2018-06-25T14:46:57.610Z,42.20
2018-06-25T14:49:26.143Z,43.00
2018-06-25T14:51:54.625Z,44.60
2018-06-25T14:54:23.107Z,44.30
2018-06-25T14:56:51.610Z,45.90
2018-06-25T14:59:20.068Z,46.40
2018-06-25T15:01:48.500Z,46.30
2018-06-25T15:04:17.050Z,46.90
2018-06-25T15:06:46.008Z,47.40
2018-06-25T15:09:14.495Z,48.40
2018-06-25T15:11:43.035Z,46.10
2018-06-25T15:14:11.577Z,47.40
2018-06-25T15:16:40.050Z,48.10
2018-06-25T15:19:08.952Z,48.50
2018-06-25T15:21:37.547Z,48.00
2018-06-25T15:24:06.000Z,48.50
2018-06-25T15:26:34.711Z,47.90
2018-06-25T15:29:03.247Z,47.70
2018-06-25T15:31:31.714Z,47.30
2018-06-25T15:34:00.166Z,47.40
2018-06-25T15:36:28.627Z,46.70
2018-06-25T15:38:57.069Z,47.20
2018-06-25T15:41:25.536Z,45.60
2018-06-25T15:43:53.962Z,44.40
2018-06-25T15:46:22.411Z,45.40
2018-06-25T15:48:50.931Z,42.50
2018-06-25T15:51:19.434Z,42.10
2018-06-25T15:53:47.959Z,42.60
2018-06-25T15:56:16.446Z,41.40
2018-06-25T16:01:13.109Z,40.90
2018-06-25T16:03:41.669Z,37.60
2018-06-25T16:06:10.209Z,36.10
2018-06-25T16:08:38.682Z,34.40
2018-06-25T16:11:07.294Z,34.00
2018-06-25T16:13:35.789Z,31.60
2018-06-25T16:16:04.350Z,31.10
2018-06-25T16:18:32.933Z,31.70
2018-06-25T16:21:01.429Z,31.50
2018-06-25T16:23:29.886Z,30.70
2018-06-25T16:25:58.369Z,32.00
2018-06-25T16:28:26.826Z,32.50
2018-06-25T16:30:55.296Z,31.40
2018-06-25T16:33:23.762Z,32.10
2018-06-25T16:35:52.228Z,33.50
2018-06-25T16:38:20.709Z,33.70
2018-06-25T16:40:49.293Z,35.20
2018-06-25T16:43:17.898Z,36.60
2018-06-25T16:45:46.350Z,37.70
2018-06-25T16:48:15.016Z,38.10
2018-06-25T16:50:43.511Z,39.10
2018-06-25T16:53:12.031Z,37.60
2018-06-25T16:55:40.526Z,38.10
2018-06-25T16:58:09.694Z,39.00
2018-06-25T17:00:38.267Z,39.20
2018-06-25T17:03:06.834Z,36.50
2018-06-25T17:05:35.314Z,34.20
2018-06-25T17:08:03.867Z,33.30
2018-06-25T17:10:32.464Z,32.60
2018-06-25T17:13:00.991Z,31.90
2018-06-25T17:15:29.477Z,32.20
2018-06-25T17:17:58.703Z,31.50
2018-06-25T17:20:27.164Z,32.30
2018-06-25T17:22:55.606Z,33.50
2018-06-25T17:27:53.288Z,38.30
2018-06-25T17:30:21.878Z,39.90
2018-06-25T17:32:50.351Z,40.90
2018-06-25T17:35:18.794Z,41.10
2018-06-25T17:37:47.262Z,41.90
2018-06-25T17:40:15.741Z,41.90
2018-06-25T17:42:44.182Z,42.20
2018-06-25T17:45:12.836Z,41.80
2018-06-25T17:47:41.338Z,42.30
2018-06-25T17:50:09.819Z,42.60
2018-06-25T17:52:38.346Z,43.20
2018-06-25T17:55:06.934Z,42.30
2018-06-25T17:57:36.310Z,42.30
2018-06-25T18:00:04.976Z,42.00
2018-06-25T18:02:33.513Z,42.80
2018-06-25T18:05:02.014Z,43.00
2018-06-25T18:07:30.724Z,43.30
2018-06-25T18:09:59.235Z,43.60
2018-06-25T18:12:27.721Z,44.40
2018-06-25T18:14:56.190Z,44.80
2018-06-25T18:17:24.703Z,45.70
2018-06-25T18:19:53.787Z,45.90
2018-06-25T18:22:23.878Z,46.80
2018-06-25T18:24:52.362Z,47.40
2018-06-25T18:27:20.841Z,47.90
2018-06-25T18:29:49.293Z,48.40
2018-06-25T18:32:17.940Z,48.90
2018-06-25T18:34:46.386Z,49.40
2018-06-25T18:37:14.832Z,50.70
2018-06-25T18:39:43.342Z,50.70
2018-06-25T18:42:11.926Z,51.80
2018-06-25T18:44:40.562Z,52.70
2018-06-25T18:47:09.106Z,53.30
2018-06-25T18:49:37.577Z,52.90
2018-06-25T18:52:06.158Z,51.70
2018-06-25T18:54:34.672Z,51.60
2018-06-25T18:57:03.216Z,52.00
2018-06-25T18:59:31.706Z,52.00
2018-06-25T19:02:00.238Z,52.30
2018-06-25T19:04:28.885Z,51.90
2018-06-25T19:06:57.301Z,52.40
2018-06-25T19:09:25.834Z,52.90
2018-06-25T19:11:54.548Z,53.30
2018-06-25T19:14:22.982Z,53.60
2018-06-25T19:16:51.505Z,54.00
2018-06-25T19:19:19.945Z,54.10
2018-06-25T19:21:48.502Z,54.30
2018-06-25T19:24:17.741Z,54.40
2018-06-25T19:26:46.643Z,54.70
2018-06-25T19:31:43.458Z,55.70
2018-06-25T19:34:12.078Z,56.00
2018-06-25T19:36:40.574Z,56.40
2018-06-25T19:39:11.510Z,56.60
2018-06-25T19:41:40.298Z,56.30
2018-06-25T19:44:09.425Z,56.50
2018-06-25T19:46:37.876Z,56.80
2018-06-25T19:49:06.683Z,56.90
2018-06-25T19:51:35.122Z,57.60
2018-06-25T19:54:03.690Z,58.30
2018-06-25T19:56:32.188Z,58.80
2018-06-25T19:59:00.690Z,59.00
2018-06-25T20:01:29.287Z,59.10
2018-06-25T20:03:57.778Z,59.50
2018-06-25T20:06:26.320Z,59.60
2018-06-25T20:08:54.838Z,59.90
2018-06-25T20:11:23.635Z,60.00
2018-06-25T20:13:52.142Z,60.20
2018-06-25T20:16:21.162Z,60.50
2018-06-25T20:18:49.722Z,60.90
2018-06-25T20:21:18.218Z,61.10
2018-06-25T20:23:46.939Z,61.90
2018-06-25T20:26:15.650Z,62.50
2018-06-25T20:28:44.190Z,62.80
2018-06-25T20:31:12.815Z,63.30
2018-06-25T20:33:41.366Z,63.40
2018-06-25T20:36:10.014Z,63.90
2018-06-25T20:38:38.501Z,64.40
2018-06-25T20:41:07.068Z,64.70
2018-06-25T20:43:35.542Z,65.20
2018-06-25T20:46:04.178Z,65.10
2018-06-25T20:48:32.725Z,65.40
2018-06-25T20:51:01.384Z,65.90
2018-06-25T20:53:31.348Z,66.10
2018-06-25T20:56:00.276Z,66.20
2018-06-25T20:58:28.748Z,66.40
2018-06-25T21:00:57.358Z,66.20
2018-06-25T21:03:25.817Z,66.70
2018-06-25T21:05:54.530Z,66.90
2018-06-25T21:08:23.147Z,67.50
2018-06-25T21:10:52.002Z,68.60
2018-06-25T21:13:20.626Z,69.00
2018-06-25T21:15:49.363Z,68.70
2018-06-25T21:20:46.285Z,67.70
2018-06-25T21:23:15.000Z,67.20
2018-06-25T21:25:43.856Z,67.30
2018-06-25T21:28:12.270Z,67.60
2018-06-25T21:30:40.871Z,68.10
2018-06-25T21:33:09.486Z,68.80
2018-06-25T21:35:38.004Z,69.40
2018-06-25T21:38:06.554Z,69.60
2018-06-25T21:40:35.022Z,70.10
2018-06-25T21:43:03.482Z,70.50
2018-06-25T21:45:32.048Z,70.50
2018-06-25T21:48:00.562Z,71.10
2018-06-25T21:50:29.065Z,71.50
2018-06-25T21:52:57.622Z,71.90
2018-06-25T21:55:26.205Z,72.40
2018-06-25T21:57:54.694Z,72.60
2018-06-25T22:00:23.266Z,72.70
2018-06-25T22:02:51.754Z,73.00
2018-06-25T22:05:20.354Z,73.50
2018-06-25T22:07:48.971Z,74.30
2018-06-25T22:10:17.462Z,74.80
2018-06-25T22:12:45.926Z,75.30
2018-06-25T22:15:14.442Z,76.20
2018-06-25T22:17:42.908Z,76.80
2018-06-25T22:20:11.418Z,76.90
2018-06-25T22:22:39.988Z,77.10
2018-06-25T22:25:08.502Z,78.30
2018-06-25T22:27:37.031Z,79.10
2018-06-25T22:30:05.771Z,79.90
2018-06-25T22:32:34.202Z,80.70
2018-06-25T22:35:02.664Z,81.40
2018-06-25T22:37:31.182Z,81.60
2018-06-25T22:39:59.778Z,81.90
2018-06-25T22:42:31.247Z,82.60
2018-06-25T22:44:59.732Z,83.50
2018-06-25T22:47:28.166Z,84.60
2018-06-25T22:49:56.632Z,85.50
2018-06-25T22:52:25.217Z,86.80
2018-06-25T22:54:53.744Z,88.00
2018-06-25T22:57:22.235Z,88.00
2018-06-25T22:59:50.728Z,88.50
2018-06-25T23:02:19.278Z,89.50
2018-06-25T23:04:47.738Z,90.10
2018-06-25T23:07:16.294Z,90.50
2018-06-25T23:09:44.725Z,90.80
2018-06-25T23:12:13.186Z,91.30
2018-06-25T23:14:41.949Z,91.40
2018-06-25T23:17:10.566Z,91.40
2018-06-25T23:19:39.086Z,91.40
2018-06-25T23:22:07.719Z,91.70
2018-06-25T23:24:36.330Z,92.00
2018-06-25T23:27:04.934Z,92.20
2018-06-25T23:29:33.462Z,92.40
2018-06-25T23:32:01.946Z,92.60
2018-06-25T23:34:30.502Z,92.60
2018-06-25T23:39:27.233Z,92.90
2018-06-25T23:41:55.728Z,93.10
2018-06-25T23:47:18.765Z,93.40
2018-06-25T23:49:48.216Z,93.50
2018-06-25T23:52:17.676Z,93.70
2018-06-25T23:54:46.141Z,93.90
2018-06-25T23:57:14.726Z,94.10
2018-06-25T23:59:43.186Z,94.30
